sensor_id;sensor_type;location;lat;lon;timestamp;pressure;altitude;pressure_sealevel;temperature;humidity
5812;BME280;2932;52.400;9.558;2022-12-18T00:03:51;102366.88;;;1.26;56.88
5812;BME280;2932;52.400;9.558;2022-12-18T00:06:17;102363.09;;;1.27;56.74
5812;BME280;2932;52.400;9.558;2022-12-18T00:08:44;102368.03;;;1.42;56.69
5812;BME280;2932;52.400;9.558;2022-12-18T00:11:15;102362.66;;;1.59;56.35
5812;BME280;2932;52.400;9.558;2022-12-18T00:13:40;102372.56;;;1.37;56.71
5812;BME280;2932;52.400;9.558;2022-12-18T00:16:09;102370.19;;;1.28;56.70
5812;BME280;2932;52.400;9.558;2022-12-18T00:18:36;102374.69;;;1.34;56.92
5812;BME280;2932;52.400;9.558;2022-12-18T00:21:04;102381.16;;;1.17;56.96
5812;BME280;2932;52.400;9.558;2022-12-18T00:23:31;102380.09;;;1.18;57.12
5812;BME280;2932;52.400;9.558;2022-12-18T00:26:06;102378.09;;;1.13;57.50
5812;BME280;2932;52.400;9.558;2022-12-18T00:28:32;102378.31;;;1.12;57.52
5812;BME280;2932;52.400;9.558;2022-12-18T00:31:06;102371.41;;;1.21;57.26
5812;BME280;2932;52.400;9.558;2022-12-18T00:33:32;102371.91;;;1.18;56.92
5812;BME280;2932;52.400;9.558;2022-12-18T00:36:18;102374.41;;;1.19;57.11
5812;BME280;2932;52.400;9.558;2022-12-18T00:38:44;102375.97;;;1.04;57.30
5812;BME280;2932;52.400;9.558;2022-12-18T00:41:11;102379.38;;;1.11;57.37
5812;BME280;2932;52.400;9.558;2022-12-18T00:43:38;102383.88;;;1.17;57.38
5812;BME280;2932;52.400;9.558;2022-12-18T00:46:04;102385.16;;;1.26;57.19
5812;BME280;2932;52.400;9.558;2022-12-18T00:48:32;102384.38;;;1.14;57.14
5812;BME280;2932;52.400;9.558;2022-12-18T00:50:58;102386.03;;;1.03;57.18
5812;BME280;2932;52.400;9.558;2022-12-18T00:53:23;102387.81;;;0.97;57.29
5812;BME280;2932;52.400;9.558;2022-12-18T00:55:48;102393.03;;;0.87;57.43
5812;BME280;2932;52.400;9.558;2022-12-18T00:58:15;102384.25;;;0.85;57.18
5812;BME280;2932;52.400;9.558;2022-12-18T01:00:41;102381.28;;;0.98;57.03
5812;BME280;2932;52.400;9.558;2022-12-18T01:03:07;102368.84;;;0.91;57.24
5812;BME280;2932;52.400;9.558;2022-12-18T01:05:33;102367.19;;;0.90;57.33
5812;BME280;2932;52.400;9.558;2022-12-18T01:07:58;102372.19;;;0.70;57.78
5812;BME280;2932;52.400;9.558;2022-12-18T01:10:24;102373.00;;;0.82;57.78
5812;BME280;2932;52.400;9.558;2022-12-18T01:12:51;102373.63;;;0.60;57.77
5812;BME280;2932;52.400;9.558;2022-12-18T01:15:17;102371.59;;;0.44;58.43
5812;BME280;2932;52.400;9.558;2022-12-18T01:17:43;102370.66;;;0.62;58.25
5812;BME280;2932;52.400;9.558;2022-12-18T01:20:10;102372.56;;;0.73;57.98
5812;BME280;2932;52.400;9.558;2022-12-18T01:22:36;102372.78;;;0.83;57.53
5812;BME280;2932;52.400;9.558;2022-12-18T01:25:02;102364.97;;;0.75;57.63
5812;BME280;2932;52.400;9.558;2022-12-18T01:27:28;102366.84;;;0.86;57.44
5812;BME280;2932;52.400;9.558;2022-12-18T01:29:53;102371.09;;;0.82;57.50
5812;BME280;2932;52.400;9.558;2022-12-18T01:32:19;102379.53;;;0.92;57.08
5812;BME280;2932;52.400;9.558;2022-12-18T01:34:44;102381.69;;;0.67;57.20
5812;BME280;2932;52.400;9.558;2022-12-18T01:37:10;102382.03;;;0.59;57.88
5812;BME280;2932;52.400;9.558;2022-12-18T01:39:35;102383.56;;;0.66;57.87
5812;BME280;2932;52.400;9.558;2022-12-18T01:42:10;102387.00;;;0.62;57.81
5812;BME280;2932;52.400;9.558;2022-12-18T01:45:01;102388.19;;;0.66;57.82
5812;BME280;2932;52.400;9.558;2022-12-18T01:47:41;102392.44;;;0.62;57.95
5812;BME280;2932;52.400;9.558;2022-12-18T01:52:34;102396.81;;;0.63;57.53
5812;BME280;2932;52.400;9.558;2022-12-18T01:55:00;102400.97;;;0.65;57.82
5812;BME280;2932;52.400;9.558;2022-12-18T01:57:28;102393.72;;;0.83;57.81
5812;BME280;2932;52.400;9.558;2022-12-18T01:59:56;102395.97;;;0.86;57.54
5812;BME280;2932;52.400;9.558;2022-12-18T02:02:26;102399.91;;;0.90;57.25
5812;BME280;2932;52.400;9.558;2022-12-18T02:04:52;102402.88;;;0.65;57.60
5812;BME280;2932;52.400;9.558;2022-12-18T02:12:50;102402.97;;;0.58;57.21
5812;BME280;2932;52.400;9.558;2022-12-18T02:15:33;102408.66;;;0.92;56.47
5812;BME280;2932;52.400;9.558;2022-12-18T02:18:11;102412.41;;;0.44;57.19
5812;BME280;2932;52.400;9.558;2022-12-18T02:20:45;102404.72;;;0.41;57.23
5812;BME280;2932;52.400;9.558;2022-12-18T02:28:29;102398.59;;;0.34;58.61
5812;BME280;2932;52.400;9.558;2022-12-18T02:30:59;102397.06;;;0.38;58.69
5812;BME280;2932;52.400;9.558;2022-12-18T02:33:27;102402.38;;;0.45;58.12
5812;BME280;2932;52.400;9.558;2022-12-18T02:35:55;102398.94;;;0.49;58.18
5812;BME280;2932;52.400;9.558;2022-12-18T02:38:24;102396.44;;;0.48;57.93
5812;BME280;2932;52.400;9.558;2022-12-18T02:40:51;102390.03;;;0.42;58.19
5812;BME280;2932;52.400;9.558;2022-12-18T02:43:18;102377.75;;;0.40;58.12
5812;BME280;2932;52.400;9.558;2022-12-18T02:45:53;102375.25;;;0.50;58.07
5812;BME280;2932;52.400;9.558;2022-12-18T02:48:23;102374.19;;;0.27;58.43
5812;BME280;2932;52.400;9.558;2022-12-18T02:51:08;102380.94;;;0.37;58.30
5812;BME280;2932;52.400;9.558;2022-12-18T02:53:45;102386.03;;;0.45;58.20
5812;BME280;2932;52.400;9.558;2022-12-18T02:56:13;102388.53;;;0.58;57.79
5812;BME280;2932;52.400;9.558;2022-12-18T02:59:05;102390.78;;;0.61;58.00
5812;BME280;2932;52.400;9.558;2022-12-18T03:06:58;102371.59;;;0.32;58.17
5812;BME280;2932;52.400;9.558;2022-12-18T03:09:32;102376.22;;;0.32;58.64
5812;BME280;2932;52.400;9.558;2022-12-18T03:12:24;102372.88;;;0.18;58.84
5812;BME280;2932;52.400;9.558;2022-12-18T03:17:23;102372.31;;;0.40;58.41
5812;BME280;2932;52.400;9.558;2022-12-18T03:19:52;102371.34;;;0.46;58.48
5812;BME280;2932;52.400;9.558;2022-12-18T03:22:20;102364.59;;;0.48;58.53
5812;BME280;2932;52.400;9.558;2022-12-18T03:24:48;102369.94;;;0.43;58.53
5812;BME280;2932;52.400;9.558;2022-12-18T03:27:17;102361.53;;;0.33;58.72
5812;BME280;2932;52.400;9.558;2022-12-18T03:29:49;102369.69;;;0.21;59.15
5812;BME280;2932;52.400;9.558;2022-12-18T03:32:27;102379.25;;;0.24;59.09
5812;BME280;2932;52.400;9.558;2022-12-18T03:34:57;102382.59;;;0.26;58.90
5812;BME280;2932;52.400;9.558;2022-12-18T03:37:23;102386.03;;;0.33;59.00
5812;BME280;2932;52.400;9.558;2022-12-18T03:39:49;102391.38;;;0.40;58.87
5812;BME280;2932;52.400;9.558;2022-12-18T03:45:19;102389.22;;;0.42;59.19
5812;BME280;2932;52.400;9.558;2022-12-18T03:48:08;102395.41;;;0.37;59.40
5812;BME280;2932;52.400;9.558;2022-12-18T03:56:28;102390.41;;;0.34;59.25
5812;BME280;2932;52.400;9.558;2022-12-18T03:58:55;102393.38;;;0.32;59.32
5812;BME280;2932;52.400;9.558;2022-12-18T04:01:28;102396.88;;;0.21;59.51
5812;BME280;2932;52.400;9.558;2022-12-18T04:03:55;102388.53;;;0.35;59.67
5812;BME280;2932;52.400;9.558;2022-12-18T04:06:22;102391.94;;;0.30;59.35
5812;BME280;2932;52.400;9.558;2022-12-18T04:08:48;102390.66;;;0.32;59.59
5812;BME280;2932;52.400;9.558;2022-12-18T04:11:13;102385.44;;;0.43;59.37
5812;BME280;2932;52.400;9.558;2022-12-18T04:13:42;102399.03;;;0.43;59.40
5812;BME280;2932;52.400;9.558;2022-12-18T04:16:07;102385.91;;;0.51;59.07
5812;BME280;2932;52.400;9.558;2022-12-18T04:18:34;102379.75;;;0.32;59.38
5812;BME280;2932;52.400;9.558;2022-12-18T04:21:00;102390.41;;;0.34;59.47
5812;BME280;2932;52.400;9.558;2022-12-18T04:23:26;102391.13;;;0.29;59.60
5812;BME280;2932;52.400;9.558;2022-12-18T04:25:51;102392.16;;;0.40;59.13
5812;BME280;2932;52.400;9.558;2022-12-18T04:28:17;102398.09;;;0.25;59.37
5812;BME280;2932;52.400;9.558;2022-12-18T04:30:42;102397.63;;;0.28;59.36
5812;BME280;2932;52.400;9.558;2022-12-18T04:33:12;102392.47;;;0.09;59.78
5812;BME280;2932;52.400;9.558;2022-12-18T04:35:41;102392.75;;;0.19;59.95
5812;BME280;2932;52.400;9.558;2022-12-18T04:38:07;102400.81;;;-0.16;60.34
5812;BME280;2932;52.400;9.558;2022-12-18T04:40:37;102398.41;;;-0.24;60.66
5812;BME280;2932;52.400;9.558;2022-12-18T04:43:03;102387.53;;;-0.24;60.61
5812;BME280;2932;52.400;9.558;2022-12-18T04:45:30;102386.38;;;-0.17;60.62
5812;BME280;2932;52.400;9.558;2022-12-18T04:48:00;102392.50;;;-0.21;60.62
5812;BME280;2932;52.400;9.558;2022-12-18T04:50:25;102389.00;;;-0.10;60.48
5812;BME280;2932;52.400;9.558;2022-12-18T04:52:51;102386.78;;;-0.02;60.41
5812;BME280;2932;52.400;9.558;2022-12-18T04:55:16;102384.44;;;0.14;60.06
5812;BME280;2932;52.400;9.558;2022-12-18T04:57:41;102375.06;;;-0.02;60.20
5812;BME280;2932;52.400;9.558;2022-12-18T05:00:07;102386.16;;;-0.15;60.62
5812;BME280;2932;52.400;9.558;2022-12-18T05:02:33;102389.31;;;-0.18;60.65
5812;BME280;2932;52.400;9.558;2022-12-18T05:04:58;102384.03;;;-0.13;60.48
5812;BME280;2932;52.400;9.558;2022-12-18T05:07:24;102393.06;;;-0.01;60.33
5812;BME280;2932;52.400;9.558;2022-12-18T05:09:49;102391.97;;;-0.12;60.43
5812;BME280;2932;52.400;9.558;2022-12-18T05:12:15;102393.06;;;-0.01;60.31
5812;BME280;2932;52.400;9.558;2022-12-18T05:14:40;102388.78;;;-0.09;60.28
5812;BME280;2932;52.400;9.558;2022-12-18T05:17:06;102402.16;;;-0.07;60.18
5812;BME280;2932;52.400;9.558;2022-12-18T05:19:31;102409.72;;;0.03;60.16
5812;BME280;2932;52.400;9.558;2022-12-18T05:21:56;102408.44;;;0.05;60.18
5812;BME280;2932;52.400;9.558;2022-12-18T05:24:22;102409.16;;;0.12;59.50
5812;BME280;2932;52.400;9.558;2022-12-18T05:26:47;102399.25;;;0.18;59.73
5812;BME280;2932;52.400;9.558;2022-12-18T05:29:13;102404.06;;;0.04;59.99
5812;BME280;2932;52.400;9.558;2022-12-18T05:31:38;102397.91;;;0.09;59.94
5812;BME280;2932;52.400;9.558;2022-12-18T05:34:04;102404.06;;;0.04;59.70
5812;BME280;2932;52.400;9.558;2022-12-18T05:36:30;102403.44;;;-0.10;60.19
5812;BME280;2932;52.400;9.558;2022-12-18T05:38:55;102413.72;;;-0.12;60.43
5812;BME280;2932;52.400;9.558;2022-12-18T05:41:20;102412.28;;;-0.14;60.25
5812;BME280;2932;52.400;9.558;2022-12-18T05:43:46;102411.78;;;-0.23;60.06
5812;BME280;2932;52.400;9.558;2022-12-18T05:46:14;102407.69;;;-0.14;60.22
5812;BME280;2932;52.400;9.558;2022-12-18T05:48:41;102418.19;;;-0.17;60.37
5812;BME280;2932;52.400;9.558;2022-12-18T05:51:09;102422.03;;;-0.07;60.45
5812;BME280;2932;52.400;9.558;2022-12-18T05:53:35;102421.06;;;-0.12;60.41
5812;BME280;2932;52.400;9.558;2022-12-18T05:56:03;102420.59;;;0.03;60.31
5812;BME280;2932;52.400;9.558;2022-12-18T05:58:29;102422.88;;;0.06;60.06
5812;BME280;2932;52.400;9.558;2022-12-18T06:00:54;102422.22;;;0.22;59.78
5812;BME280;2932;52.400;9.558;2022-12-18T06:03:20;102419.44;;;0.10;59.93
5812;BME280;2932;52.400;9.558;2022-12-18T06:05:45;102420.66;;;0.14;59.83
5812;BME280;2932;52.400;9.558;2022-12-18T06:08:12;102420.50;;;0.09;59.79
5812;BME280;2932;52.400;9.558;2022-12-18T06:10:38;102431.81;;;0.24;59.77
5812;BME280;2932;52.400;9.558;2022-12-18T06:13:04;102426.97;;;0.26;59.71
5812;BME280;2932;52.400;9.558;2022-12-18T06:15:29;102429.91;;;0.25;59.37
5812;BME280;2932;52.400;9.558;2022-12-18T06:17:55;102420.06;;;0.12;59.60
5812;BME280;2932;52.400;9.558;2022-12-18T06:20:20;102415.53;;;0.06;59.23
5812;BME280;2932;52.400;9.558;2022-12-18T06:22:46;102421.84;;;0.18;59.35
5812;BME280;2932;52.400;9.558;2022-12-18T06:25:11;102419.03;;;0.25;58.93
5812;BME280;2932;52.400;9.558;2022-12-18T06:27:37;102420.59;;;0.44;58.93
5812;BME280;2932;52.400;9.558;2022-12-18T06:30:03;102420.00;;;0.00;59.53
5812;BME280;2932;52.400;9.558;2022-12-18T06:32:28;102418.59;;;-0.02;59.52
5812;BME280;2932;52.400;9.558;2022-12-18T06:34:53;102425.59;;;0.06;59.47
5812;BME280;2932;52.400;9.558;2022-12-18T06:37:20;102418.03;;;-0.22;59.97
5812;BME280;2932;52.400;9.558;2022-12-18T06:39:46;102418.34;;;-0.30;60.49
5812;BME280;2932;52.400;9.558;2022-12-18T06:42:11;102428.16;;;-0.29;60.38
5812;BME280;2932;52.400;9.558;2022-12-18T06:44:37;102428.16;;;-0.29;60.43
5812;BME280;2932;52.400;9.558;2022-12-18T06:47:02;102433.97;;;-0.26;60.31
5812;BME280;2932;52.400;9.558;2022-12-18T06:49:27;102439.56;;;-0.21;60.35
5812;BME280;2932;52.400;9.558;2022-12-18T06:51:53;102443.13;;;-0.20;60.15
5812;BME280;2932;52.400;9.558;2022-12-18T06:54:18;102437.13;;;-0.11;60.13
5812;BME280;2932;52.400;9.558;2022-12-18T06:56:45;102438.28;;;-0.18;60.18
5812;BME280;2932;52.400;9.558;2022-12-18T06:59:12;102443.03;;;-0.14;60.02
5812;BME280;2932;52.400;9.558;2022-12-18T07:01:37;102444.53;;;0.12;59.57
5812;BME280;2932;52.400;9.558;2022-12-18T07:04:03;102445.66;;;-0.07;59.92
5812;BME280;2932;52.400;9.558;2022-12-18T07:06:34;102444.97;;;-0.03;59.71
5812;BME280;2932;52.400;9.558;2022-12-18T07:08:59;102449.00;;;-0.05;59.70
5812;BME280;2932;52.400;9.558;2022-12-18T07:11:25;102449.38;;;-0.20;60.11
5812;BME280;2932;52.400;9.558;2022-12-18T07:13:50;102453.47;;;-0.29;60.33
5812;BME280;2932;52.400;9.558;2022-12-18T07:16:21;102460.56;;;-0.28;60.51
5812;BME280;2932;52.400;9.558;2022-12-18T07:18:49;102463.38;;;-0.16;60.26
5812;BME280;2932;52.400;9.558;2022-12-18T07:21:17;102472.22;;;-0.21;60.00
5812;BME280;2932;52.400;9.558;2022-12-18T07:23:43;102475.44;;;-0.12;60.14
5812;BME280;2932;52.400;9.558;2022-12-18T07:26:12;102472.66;;;-0.06;59.89
5812;BME280;2932;52.400;9.558;2022-12-18T07:28:39;102482.09;;;-0.08;59.86
5812;BME280;2932;52.400;9.558;2022-12-18T07:31:07;102475.97;;;-0.04;59.94
5812;BME280;2932;52.400;9.558;2022-12-18T07:33:39;102479.97;;;-0.06;59.89
5812;BME280;2932;52.400;9.558;2022-12-18T07:36:06;102485.56;;;-0.01;59.83
5812;BME280;2932;52.400;9.558;2022-12-18T07:38:32;102487.47;;;0.10;59.39
5812;BME280;2932;52.400;9.558;2022-12-18T07:41:02;102486.06;;;0.08;59.43
5812;BME280;2932;52.400;9.558;2022-12-18T07:43:31;102488.28;;;-0.01;59.64
5812;BME280;2932;52.400;9.558;2022-12-18T07:45:56;102489.59;;;0.08;59.80
5812;BME280;2932;52.400;9.558;2022-12-18T07:48:22;102486.63;;;0.28;59.53
5812;BME280;2932;52.400;9.558;2022-12-18T07:50:47;102487.72;;;0.09;59.84
5812;BME280;2932;52.400;9.558;2022-12-18T07:53:13;102482.00;;;0.40;59.34
5812;BME280;2932;52.400;9.558;2022-12-18T07:55:40;102479.00;;;0.18;59.73
5812;BME280;2932;52.400;9.558;2022-12-18T07:58:06;102473.56;;;0.18;59.36
5812;BME280;2932;52.400;9.558;2022-12-18T08:00:32;102469.22;;;0.41;59.08
5812;BME280;2932;52.400;9.558;2022-12-18T08:02:57;102460.78;;;0.72;58.69
5812;BME280;2932;52.400;9.558;2022-12-18T08:05:23;102454.63;;;0.77;58.15
5812;BME280;2932;52.400;9.558;2022-12-18T08:07:48;102459.22;;;0.64;58.11
5812;BME280;2932;52.400;9.558;2022-12-18T08:10:14;102458.50;;;0.57;58.44
5812;BME280;2932;52.400;9.558;2022-12-18T08:12:39;102458.84;;;0.49;58.83
5812;BME280;2932;52.400;9.558;2022-12-18T08:15:05;102469.28;;;0.52;58.89
5812;BME280;2932;52.400;9.558;2022-12-18T08:17:31;102469.16;;;0.59;59.12
5812;BME280;2932;52.400;9.558;2022-12-18T08:19:56;102466.53;;;0.52;59.06
5812;BME280;2932;52.400;9.558;2022-12-18T08:22:22;102461.00;;;0.59;59.13
5812;BME280;2932;52.400;9.558;2022-12-18T08:24:47;102454.88;;;0.75;58.85
5812;BME280;2932;52.400;9.558;2022-12-18T08:27:12;102448.81;;;0.73;58.77
5812;BME280;2932;52.400;9.558;2022-12-18T08:29:37;102454.03;;;0.86;58.67
5812;BME280;2932;52.400;9.558;2022-12-18T08:32:03;102442.91;;;0.99;58.79
5812;BME280;2932;52.400;9.558;2022-12-18T08:34:29;102446.34;;;1.18;58.58
5812;BME280;2932;52.400;9.558;2022-12-18T08:36:54;102442.41;;;1.26;58.08
5812;BME280;2932;52.400;9.558;2022-12-18T08:39:19;102443.00;;;1.68;57.41
5812;BME280;2932;52.400;9.558;2022-12-18T08:41:45;102436.06;;;1.89;57.01
5812;BME280;2932;52.400;9.558;2022-12-18T08:44:30;102435.28;;;2.05;56.18
5812;BME280;2932;52.400;9.558;2022-12-18T08:47:05;102440.06;;;2.26;56.27
5812;BME280;2932;52.400;9.558;2022-12-18T08:49:31;102435.16;;;2.28;56.08
5812;BME280;2932;52.400;9.558;2022-12-18T08:51:56;102433.84;;;2.48;55.85
5812;BME280;2932;52.400;9.558;2022-12-18T08:54:23;102433.03;;;2.47;55.49
5812;BME280;2932;52.400;9.558;2022-12-18T08:56:49;102438.09;;;2.55;55.65
5812;BME280;2932;52.400;9.558;2022-12-18T08:59:15;102435.78;;;2.64;55.48
5812;BME280;2932;52.400;9.558;2022-12-18T09:01:41;102436.19;;;2.56;55.82
5812;BME280;2932;52.400;9.558;2022-12-18T09:04:07;102436.25;;;2.27;56.22
5812;BME280;2932;52.400;9.558;2022-12-18T09:06:33;102429.56;;;2.35;56.29
5812;BME280;2932;52.400;9.558;2022-12-18T09:08:58;102429.91;;;2.39;56.32
5812;BME280;2932;52.400;9.558;2022-12-18T09:11:25;102420.78;;;2.33;56.54
5812;BME280;2932;52.400;9.558;2022-12-18T09:13:51;102422.25;;;2.41;56.55
5812;BME280;2932;52.400;9.558;2022-12-18T09:16:17;102413.56;;;2.44;56.13
5812;BME280;2932;52.400;9.558;2022-12-18T09:18:43;102425.06;;;2.29;56.66
5812;BME280;2932;52.400;9.558;2022-12-18T09:21:10;102410.25;;;2.42;56.69
5812;BME280;2932;52.400;9.558;2022-12-18T09:23:35;102403.06;;;2.52;56.44
5812;BME280;2932;52.400;9.558;2022-12-18T09:26:01;102407.59;;;2.80;55.79
5812;BME280;2932;52.400;9.558;2022-12-18T09:28:26;102408.63;;;2.74;55.66
5812;BME280;2932;52.400;9.558;2022-12-18T09:30:52;102403.22;;;2.79;55.72
5812;BME280;2932;52.400;9.558;2022-12-18T09:33:17;102410.84;;;2.77;55.71
5812;BME280;2932;52.400;9.558;2022-12-18T09:35:44;102411.16;;;2.81;55.59
5812;BME280;2932;52.400;9.558;2022-12-18T09:38:12;102411.50;;;2.67;56.27
5812;BME280;2932;52.400;9.558;2022-12-18T09:40:43;102418.31;;;2.65;56.44
5812;BME280;2932;52.400;9.558;2022-12-18T09:43:17;102417.38;;;2.59;56.51
5812;BME280;2932;52.400;9.558;2022-12-18T09:45:51;102432.53;;;2.67;56.28
5812;BME280;2932;52.400;9.558;2022-12-18T09:48:25;102429.97;;;2.77;56.53
5812;BME280;2932;52.400;9.558;2022-12-18T09:50:56;102429.72;;;2.62;56.63
5812;BME280;2932;52.400;9.558;2022-12-18T09:53:27;102435.53;;;2.65;56.70
5812;BME280;2932;52.400;9.558;2022-12-18T09:55:53;102437.94;;;2.79;56.74
5812;BME280;2932;52.400;9.558;2022-12-18T09:58:35;102433.09;;;3.03;56.31
5812;BME280;2932;52.400;9.558;2022-12-18T10:01:10;102423.50;;;3.22;56.30
5812;BME280;2932;52.400;9.558;2022-12-18T10:03:36;102434.25;;;3.28;56.10
5812;BME280;2932;52.400;9.558;2022-12-18T10:14:18;102445.16;;;3.67;55.76
5812;BME280;2932;52.400;9.558;2022-12-18T10:28:08;102429.41;;;3.52;55.52
5812;BME280;2932;52.400;9.558;2022-12-18T10:30:34;102433.06;;;3.63;55.34
5812;BME280;2932;52.400;9.558;2022-12-18T10:33:02;102434.91;;;3.79;55.40
5812;BME280;2932;52.400;9.558;2022-12-18T10:35:27;102433.13;;;3.90;54.85
5812;BME280;2932;52.400;9.558;2022-12-18T10:38:07;102436.88;;;3.84;54.99
5812;BME280;2932;52.400;9.558;2022-12-18T10:46:15;102442.00;;;4.02;54.92
5812;BME280;2932;52.400;9.558;2022-12-18T10:51:32;102417.97;;;4.36;54.05
5812;BME280;2932;52.400;9.558;2022-12-18T10:54:23;102411.41;;;4.37;54.17
5812;BME280;2932;52.400;9.558;2022-12-18T10:56:50;102405.78;;;4.54;53.67
5812;BME280;2932;52.400;9.558;2022-12-18T10:59:17;102403.63;;;4.98;52.73
5812;BME280;2932;52.400;9.558;2022-12-18T11:04:20;102387.78;;;5.05;52.18
5812;BME280;2932;52.400;9.558;2022-12-18T11:09:24;102384.59;;;4.81;52.09
5812;BME280;2932;52.400;9.558;2022-12-18T11:11:54;102403.81;;;4.86;52.48
5812;BME280;2932;52.400;9.558;2022-12-18T11:14:24;102395.28;;;5.20;52.18
5812;BME280;2932;52.400;9.558;2022-12-18T11:16:51;102390.78;;;5.03;51.38
5812;BME280;2932;52.400;9.558;2022-12-18T11:21:52;102393.63;;;4.82;52.28
5812;BME280;2932;52.400;9.558;2022-12-18T11:24:31;102393.84;;;4.70;52.49
5812;BME280;2932;52.400;9.558;2022-12-18T11:26:58;102395.03;;;4.79;52.49
5812;BME280;2932;52.400;9.558;2022-12-18T11:29:33;102396.00;;;5.05;52.39
5812;BME280;2932;52.400;9.558;2022-12-18T11:34:42;102394.47;;;6.83;48.79
5812;BME280;2932;52.400;9.558;2022-12-18T11:37:11;102382.25;;;7.30;47.27
5812;BME280;2932;52.400;9.558;2022-12-18T11:42:12;102361.94;;;9.06;45.08
5812;BME280;2932;52.400;9.558;2022-12-18T11:44:50;102343.66;;;9.95;43.53
5812;BME280;2932;52.400;9.558;2022-12-18T11:47:25;102338.72;;;10.44;42.45
5812;BME280;2932;52.400;9.558;2022-12-18T11:49:55;102330.41;;;9.92;42.76
5812;BME280;2932;52.400;9.558;2022-12-18T11:52:28;102317.84;;;10.51;42.09
5812;BME280;2932;52.400;9.558;2022-12-18T11:55:00;102316.88;;;10.75;41.72
5812;BME280;2932;52.400;9.558;2022-12-18T11:57:49;102294.91;;;10.64;41.65
5812;BME280;2932;52.400;9.558;2022-12-18T12:00:18;102311.22;;;11.21;41.12
5812;BME280;2932;52.400;9.558;2022-12-18T12:03:04;102306.22;;;11.09;41.08
5812;BME280;2932;52.400;9.558;2022-12-18T12:08:26;102304.03;;;11.83;42.91
5812;BME280;2932;52.400;9.558;2022-12-18T12:22:28;102287.94;;;9.08;43.99
5812;BME280;2932;52.400;9.558;2022-12-18T12:25:34;102286.88;;;8.56;44.58
5812;BME280;2932;52.400;9.558;2022-12-18T12:33:48;102276.34;;;7.17;47.43
5812;BME280;2932;52.400;9.558;2022-12-18T12:38:49;102269.09;;;6.67;48.58
5812;BME280;2932;52.400;9.558;2022-12-18T12:41:19;102258.69;;;6.49;48.90
5812;BME280;2932;52.400;9.558;2022-12-18T12:44:08;102250.50;;;6.23;49.74
5812;BME280;2932;52.400;9.558;2022-12-18T12:46:39;102243.91;;;6.14;49.96
5812;BME280;2932;52.400;9.558;2022-12-18T12:49:13;102232.63;;;6.00;50.39
5812;BME280;2932;52.400;9.558;2022-12-18T12:51:43;102236.22;;;6.01;50.54
5812;BME280;2932;52.400;9.558;2022-12-18T12:54:22;102245.00;;;6.03;50.91
5812;BME280;2932;52.400;9.558;2022-12-18T13:02:39;102244.41;;;5.45;52.21
5812;BME280;2932;52.400;9.558;2022-12-18T13:07:37;102227.88;;;5.25;52.90
5812;BME280;2932;52.400;9.558;2022-12-18T13:13:23;102232.97;;;4.86;53.32
5812;BME280;2932;52.400;9.558;2022-12-18T13:16:03;102239.81;;;4.83;53.09
5812;BME280;2932;52.400;9.558;2022-12-18T13:18:30;102244.72;;;4.71;53.10
5812;BME280;2932;52.400;9.558;2022-12-18T13:34:22;102237.38;;;3.92;54.38
5812;BME280;2932;52.400;9.558;2022-12-18T13:36:48;102237.34;;;3.87;54.27
5812;BME280;2932;52.400;9.558;2022-12-18T13:41:45;102230.69;;;3.78;54.51
5812;BME280;2932;52.400;9.558;2022-12-18T13:44:33;102227.00;;;3.94;54.45
5812;BME280;2932;52.400;9.558;2022-12-18T13:47:01;102223.34;;;3.84;54.96
5812;BME280;2932;52.400;9.558;2022-12-18T13:49:39;102221.22;;;3.91;55.31
5812;BME280;2932;52.400;9.558;2022-12-18T13:54:42;102206.00;;;3.73;55.55
5812;BME280;2932;52.400;9.558;2022-12-18T13:57:30;102207.75;;;3.52;55.63
5812;BME280;2932;52.400;9.558;2022-12-18T13:59:56;102207.25;;;3.60;55.53
5812;BME280;2932;52.400;9.558;2022-12-18T14:02:24;102197.84;;;3.78;55.08
5812;BME280;2932;52.400;9.558;2022-12-18T14:04:51;102190.56;;;3.62;54.78
5812;BME280;2932;52.400;9.558;2022-12-18T14:07:19;102189.75;;;3.61;55.11
5812;BME280;2932;52.400;9.558;2022-12-18T14:09:50;102189.53;;;3.68;54.86
5812;BME280;2932;52.400;9.558;2022-12-18T14:12:33;102189.06;;;3.76;54.46
5812;BME280;2932;52.400;9.558;2022-12-18T14:15:57;102183.38;;;3.83;54.55
5812;BME280;2932;52.400;9.558;2022-12-18T14:23:46;102160.13;;;3.85;54.28
5812;BME280;2932;52.400;9.558;2022-12-18T14:28:46;102163.06;;;3.79;54.78
5812;BME280;2932;52.400;9.558;2022-12-18T14:31:19;102157.75;;;3.62;55.04
5812;BME280;2932;52.400;9.558;2022-12-18T14:33:45;102153.00;;;3.47;55.58
5812;BME280;2932;52.400;9.558;2022-12-18T14:36:22;102161.09;;;3.37;55.22
5812;BME280;2932;52.400;9.558;2022-12-18T14:38:50;102160.06;;;3.43;55.54
5812;BME280;2932;52.400;9.558;2022-12-18T14:41:18;102152.69;;;3.44;55.45
5812;BME280;2932;52.400;9.558;2022-12-18T14:43:46;102152.28;;;3.30;55.73
5812;BME280;2932;52.400;9.558;2022-12-18T14:46:34;102161.63;;;3.34;55.71
5812;BME280;2932;52.400;9.558;2022-12-18T14:49:14;102159.16;;;3.32;55.57
5812;BME280;2932;52.400;9.558;2022-12-18T14:51:52;102156.50;;;3.43;55.60
5812;BME280;2932;52.400;9.558;2022-12-18T14:54:19;102158.31;;;3.32;55.45
5812;BME280;2932;52.400;9.558;2022-12-18T14:56:47;102151.72;;;3.28;55.58
5812;BME280;2932;52.400;9.558;2022-12-18T14:59:21;102148.56;;;3.41;55.48
5812;BME280;2932;52.400;9.558;2022-12-18T15:04:45;102140.16;;;3.21;56.12
5812;BME280;2932;52.400;9.558;2022-12-18T15:07:16;102139.47;;;3.35;55.48
5812;BME280;2932;52.400;9.558;2022-12-18T15:09:46;102130.78;;;3.12;55.88
5812;BME280;2932;52.400;9.558;2022-12-18T15:12:34;102136.19;;;3.33;55.66
5812;BME280;2932;52.400;9.558;2022-12-18T15:14:59;102139.22;;;3.37;55.48
5812;BME280;2932;52.400;9.558;2022-12-18T15:17:25;102133.09;;;3.25;55.58
5812;BME280;2932;52.400;9.558;2022-12-18T15:19:53;102137.63;;;3.41;55.73
5812;BME280;2932;52.400;9.558;2022-12-18T15:22:33;102123.06;;;3.35;55.23
5812;BME280;2932;52.400;9.558;2022-12-18T15:24:59;102125.91;;;3.14;55.61
5812;BME280;2932;52.400;9.558;2022-12-18T15:27:36;102124.44;;;3.06;55.60
5812;BME280;2932;52.400;9.558;2022-12-18T15:32:36;102120.78;;;2.95;55.97
5812;BME280;2932;52.400;9.558;2022-12-18T15:37:28;102120.16;;;2.88;56.12
5812;BME280;2932;52.400;9.558;2022-12-18T15:39:53;102108.66;;;2.86;56.23
5812;BME280;2932;52.400;9.558;2022-12-18T15:42:19;102096.59;;;2.82;56.04
5812;BME280;2932;52.400;9.558;2022-12-18T15:45:03;102103.72;;;2.83;56.24
5812;BME280;2932;52.400;9.558;2022-12-18T15:47:29;102102.06;;;2.82;56.35
5812;BME280;2932;52.400;9.558;2022-12-18T15:49:54;102097.53;;;2.93;56.27
5812;BME280;2932;52.400;9.558;2022-12-18T15:52:19;102094.84;;;2.98;55.51